sensor_id;sensor_type;location;lat;lon;timestamp;P1;durP1;ratioP1;P2;durP2;ratioP2
44098;SDS011;29762;50.086;14.364;2023-03-19T00:00:53;3.45;;;3.15;;
44098;SDS011;29762;50.086;14.364;2023-03-19T00:06:17;4.30;;;3.25;;
44098;SDS011;29762;50.086;14.364;2023-03-19T00:11:37;5.07;;;3.53;;
44098;SDS011;29762;50.086;14.364;2023-03-19T00:16:57;3.92;;;3.25;;
44098;SDS011;29762;50.086;14.364;2023-03-19T00:22:16;3.53;;;3.22;;
44098;SDS011;29762;50.086;14.364;2023-03-19T00:27:36;4.22;;;3.20;;
44098;SDS011;29762;50.086;14.364;2023-03-19T00:32:56;4.25;;;3.38;;
44098;SDS011;29762;50.086;14.364;2023-03-19T00:38:15;4.35;;;3.20;;
44098;SDS011;29762;50.086;14.364;2023-03-19T00:43:35;3.60;;;3.03;;
44098;SDS011;29762;50.086;14.364;2023-03-19T00:48:55;4.10;;;3.40;;
44098;SDS011;29762;50.086;14.364;2023-03-19T00:54:16;3.53;;;3.20;;
44098;SDS011;29762;50.086;14.364;2023-03-19T00:59:36;3.30;;;3.00;;
44098;SDS011;29762;50.086;14.364;2023-03-19T01:04:55;3.20;;;2.92;;
44098;SDS011;29762;50.086;14.364;2023-03-19T01:10:16;5.03;;;3.15;;
44098;SDS011;29762;50.086;14.364;2023-03-19T01:15:40;5.63;;;3.22;;
44098;SDS011;29762;50.086;14.364;2023-03-19T01:21:01;3.50;;;3.20;;
44098;SDS011;29762;50.086;14.364;2023-03-19T01:26:23;3.30;;;2.95;;
44098;SDS011;29762;50.086;14.364;2023-03-19T01:31:46;3.40;;;3.10;;
44098;SDS011;29762;50.086;14.364;2023-03-19T01:37:27;2.80;;;2.50;;
44098;SDS011;29762;50.086;14.364;2023-03-19T01:42:51;3.20;;;2.67;;
44098;SDS011;29762;50.086;14.364;2023-03-19T01:48:44;3.13;;;2.53;;
44098;SDS011;29762;50.086;14.364;2023-03-19T01:54:10;3.55;;;3.00;;
44098;SDS011;29762;50.086;14.364;2023-03-19T01:59:46;3.67;;;3.28;;
44098;SDS011;29762;50.086;14.364;2023-03-19T02:05:26;3.25;;;2.78;;
44098;SDS011;29762;50.086;14.364;2023-03-19T02:10:51;2.92;;;2.63;;
44098;SDS011;29762;50.086;14.364;2023-03-19T02:16:13;3.00;;;2.63;;
44098;SDS011;29762;50.086;14.364;2023-03-19T02:21:34;3.80;;;2.95;;
44098;SDS011;29762;50.086;14.364;2023-03-19T02:26:54;3.22;;;2.80;;
44098;SDS011;29762;50.086;14.364;2023-03-19T02:32:14;2.88;;;2.63;;
44098;SDS011;29762;50.086;14.364;2023-03-19T02:37:34;3.17;;;2.60;;
44098;SDS011;29762;50.086;14.364;2023-03-19T02:42:54;3.58;;;2.85;;
44098;SDS011;29762;50.086;14.364;2023-03-19T02:48:15;3.20;;;2.90;;
44098;SDS011;29762;50.086;14.364;2023-03-19T02:53:35;3.05;;;2.60;;
44098;SDS011;29762;50.086;14.364;2023-03-19T02:58:55;2.75;;;2.50;;
44098;SDS011;29762;50.086;14.364;2023-03-19T03:04:14;2.58;;;2.25;;
44098;SDS011;29762;50.086;14.364;2023-03-19T03:09:34;3.00;;;2.63;;
44098;SDS011;29762;50.086;14.364;2023-03-19T03:14:54;2.75;;;2.42;;
44098;SDS011;29762;50.086;14.364;2023-03-19T03:20:13;2.80;;;2.50;;
44098;SDS011;29762;50.086;14.364;2023-03-19T03:25:35;2.80;;;2.50;;
44098;SDS011;29762;50.086;14.364;2023-03-19T03:30:58;2.90;;;2.60;;
44098;SDS011;29762;50.086;14.364;2023-03-19T03:36:18;5.45;;;2.80;;
44098;SDS011;29762;50.086;14.364;2023-03-19T03:41:37;2.78;;;2.50;;
44098;SDS011;29762;50.086;14.364;2023-03-19T03:46:57;3.33;;;2.70;;
44098;SDS011;29762;50.086;14.364;2023-03-19T03:52:16;3.53;;;2.55;;
44098;SDS011;29762;50.086;14.364;2023-03-19T03:57:36;3.22;;;2.63;;
44098;SDS011;29762;50.086;14.364;2023-03-19T04:02:55;2.60;;;2.40;;
44098;SDS011;29762;50.086;14.364;2023-03-19T04:08:16;3.78;;;2.72;;
44098;SDS011;29762;50.086;14.364;2023-03-19T04:13:35;2.78;;;2.38;;
44098;SDS011;29762;50.086;14.364;2023-03-19T04:18:56;3.78;;;2.65;;
44098;SDS011;29762;50.086;14.364;2023-03-19T04:24:16;2.67;;;2.30;;
44098;SDS011;29762;50.086;14.364;2023-03-19T04:29:36;2.50;;;2.30;;
44098;SDS011;29762;50.086;14.364;2023-03-19T04:34:55;2.33;;;2.08;;
44098;SDS011;29762;50.086;14.364;2023-03-19T04:40:16;2.42;;;2.22;;
44098;SDS011;29762;50.086;14.364;2023-03-19T04:45:36;2.85;;;2.50;;
44098;SDS011;29762;50.086;14.364;2023-03-19T04:50:56;2.50;;;2.30;;
44098;SDS011;29762;50.086;14.364;2023-03-19T04:56:16;2.72;;;2.45;;
44098;SDS011;29762;50.086;14.364;2023-03-19T05:01:37;3.30;;;2.50;;
44098;SDS011;29762;50.086;14.364;2023-03-19T05:07:00;3.17;;;2.88;;
44098;SDS011;29762;50.086;14.364;2023-03-19T05:12:21;2.88;;;2.63;;
44098;SDS011;29762;50.086;14.364;2023-03-19T05:17:43;3.45;;;2.88;;
44098;SDS011;29762;50.086;14.364;2023-03-19T05:23:13;3.28;;;2.97;;
44098;SDS011;29762;50.086;14.364;2023-03-19T05:28:49;3.42;;;2.75;;
44098;SDS011;29762;50.086;14.364;2023-03-19T05:34:12;3.15;;;2.83;;
44098;SDS011;29762;50.086;14.364;2023-03-19T05:39:32;3.42;;;2.70;;
44098;SDS011;29762;50.086;14.364;2023-03-19T05:44:56;3.28;;;2.75;;
44098;SDS011;29762;50.086;14.364;2023-03-19T05:50:18;3.05;;;2.78;;
44098;SDS011;29762;50.086;14.364;2023-03-19T05:55:58;3.00;;;2.72;;
44098;SDS011;29762;50.086;14.364;2023-03-19T06:01:20;3.17;;;2.88;;
44098;SDS011;29762;50.086;14.364;2023-03-19T06:06:41;3.20;;;2.90;;
44098;SDS011;29762;50.086;14.364;2023-03-19T06:12:01;3.55;;;2.90;;
44098;SDS011;29762;50.086;14.364;2023-03-19T06:17:37;3.67;;;2.75;;
44098;SDS011;29762;50.086;14.364;2023-03-19T06:23:00;3.03;;;2.55;;
44098;SDS011;29762;50.086;14.364;2023-03-19T06:28:20;3.05;;;2.75;;
44098;SDS011;29762;50.086;14.364;2023-03-19T06:33:41;3.70;;;2.38;;
44098;SDS011;29762;50.086;14.364;2023-03-19T06:39:02;2.83;;;2.58;;
44098;SDS011;29762;50.086;14.364;2023-03-19T06:44:21;3.78;;;2.50;;
44098;SDS011;29762;50.086;14.364;2023-03-19T06:49:43;2.83;;;2.63;;
44098;SDS011;29762;50.086;14.364;2023-03-19T06:55:02;6.05;;;2.67;;
44098;SDS011;29762;50.086;14.364;2023-03-19T07:00:23;2.90;;;2.58;;
44098;SDS011;29762;50.086;14.364;2023-03-19T07:05:43;2.95;;;2.67;;
44098;SDS011;29762;50.086;14.364;2023-03-19T07:11:03;4.75;;;2.65;;
44098;SDS011;29762;50.086;14.364;2023-03-19T07:16:24;3.10;;;2.80;;
44098;SDS011;29762;50.086;14.364;2023-03-19T07:21:43;3.20;;;2.90;;
44098;SDS011;29762;50.086;14.364;2023-03-19T07:27:03;4.40;;;2.88;;
44098;SDS011;29762;50.086;14.364;2023-03-19T07:32:23;3.92;;;3.47;;
44098;SDS011;29762;50.086;14.364;2023-03-19T07:37:43;4.35;;;3.92;;
44098;SDS011;29762;50.086;14.364;2023-03-19T07:43:03;4.78;;;4.28;;
44098;SDS011;29762;50.086;14.364;2023-03-19T07:48:23;6.00;;;4.60;;
44098;SDS011;29762;50.086;14.364;2023-03-19T07:53:42;5.13;;;4.47;;
44098;SDS011;29762;50.086;14.364;2023-03-19T07:59:02;5.40;;;4.63;;
44098;SDS011;29762;50.086;14.364;2023-03-19T08:04:22;4.85;;;4.30;;
44098;SDS011;29762;50.086;14.364;2023-03-19T08:09:42;5.80;;;4.30;;
44098;SDS011;29762;50.086;14.364;2023-03-19T08:15:02;5.28;;;4.35;;
44098;SDS011;29762;50.086;14.364;2023-03-19T08:20:22;7.00;;;4.10;;
44098;SDS011;29762;50.086;14.364;2023-03-19T08:25:41;5.22;;;4.25;;
44098;SDS011;29762;50.086;14.364;2023-03-19T08:31:08;5.63;;;4.60;;
44098;SDS011;29762;50.086;14.364;2023-03-19T08:36:28;5.45;;;3.97;;
44098;SDS011;29762;50.086;14.364;2023-03-19T08:41:49;7.18;;;4.60;;
44098;SDS011;29762;50.086;14.364;2023-03-19T08:47:08;5.40;;;4.40;;
44098;SDS011;29762;50.086;14.364;2023-03-19T08:52:28;4.30;;;3.80;;
44098;SDS011;29762;50.086;14.364;2023-03-19T08:57:48;6.68;;;4.07;;
44098;SDS011;29762;50.086;14.364;2023-03-19T09:03:07;5.53;;;4.45;;
44098;SDS011;29762;50.086;14.364;2023-03-19T09:08:27;6.75;;;4.30;;
44098;SDS011;29762;50.086;14.364;2023-03-19T09:13:47;5.93;;;4.20;;
44098;SDS011;29762;50.086;14.364;2023-03-19T09:19:07;6.38;;;4.20;;
44098;SDS011;29762;50.086;14.364;2023-03-19T09:24:27;6.55;;;4.30;;
44098;SDS011;29762;50.086;14.364;2023-03-19T09:29:47;5.15;;;3.90;;
44098;SDS011;29762;50.086;14.364;2023-03-19T09:35:07;6.20;;;4.13;;
44098;SDS011;29762;50.086;14.364;2023-03-19T09:40:28;4.75;;;4.05;;
44098;SDS011;29762;50.086;14.364;2023-03-19T09:45:52;5.00;;;3.70;;
44098;SDS011;29762;50.086;14.364;2023-03-19T09:51:14;5.68;;;4.28;;
44098;SDS011;29762;50.086;14.364;2023-03-19T09:56:38;4.88;;;3.70;;
44098;SDS011;29762;50.086;14.364;2023-03-19T10:02:00;5.75;;;3.83;;
44098;SDS011;29762;50.086;14.364;2023-03-19T10:07:24;4.75;;;3.85;;
44098;SDS011;29762;50.086;14.364;2023-03-19T10:12:56;8.25;;;3.40;;
44098;SDS011;29762;50.086;14.364;2023-03-19T10:18:22;4.38;;;3.40;;
44098;SDS011;29762;50.086;14.364;2023-03-19T10:34:32;4.65;;;3.10;;
44098;SDS011;29762;50.086;14.364;2023-03-19T10:39:57;6.50;;;3.72;;
44098;SDS011;29762;50.086;14.364;2023-03-19T10:45:26;6.30;;;3.85;;
44098;SDS011;29762;50.086;14.364;2023-03-19T11:01:42;4.97;;;3.88;;
44098;SDS011;29762;50.086;14.364;2023-03-19T11:07:04;5.00;;;3.95;;
44098;SDS011;29762;50.086;14.364;2023-03-19T11:12:32;15.93;;;6.45;;
44098;SDS011;29762;50.086;14.364;2023-03-19T11:18:00;13.35;;;8.57;;
44098;SDS011;29762;50.086;14.364;2023-03-19T11:23:38;13.50;;;11.50;;
44098;SDS011;29762;50.086;14.364;2023-03-19T11:29:03;30.33;;;22.45;;
44098;SDS011;29762;50.086;14.364;2023-03-19T12:01:57;14.73;;;9.27;;
44098;SDS011;29762;50.086;14.364;2023-03-19T12:35:17;9.85;;;6.63;;
44098;SDS011;29762;50.086;14.364;2023-03-19T12:51:26;8.82;;;6.13;;
44098;SDS011;29762;50.086;14.364;2023-03-19T13:02:23;9.07;;;5.82;;
44098;SDS011;29762;50.086;14.364;2023-03-19T13:13:49;8.90;;;5.78;;
44098;SDS011;29762;50.086;14.364;2023-03-19T13:19:16;10.13;;;6.40;;
44098;SDS011;29762;50.086;14.364;2023-03-19T13:24:55;8.32;;;6.55;;
44098;SDS011;29762;50.086;14.364;2023-03-19T13:30:17;10.02;;;5.70;;
44098;SDS011;29762;50.086;14.364;2023-03-19T13:35:44;8.18;;;6.03;;
44098;SDS011;29762;50.086;14.364;2023-03-19T13:47:33;8.30;;;5.47;;
44098;SDS011;29762;50.086;14.364;2023-03-19T13:53:19;6.22;;;4.95;;
44098;SDS011;29762;50.086;14.364;2023-03-19T13:58:49;7.35;;;5.55;;
44098;SDS011;29762;50.086;14.364;2023-03-19T14:04:29;8.00;;;5.63;;
44098;SDS011;29762;50.086;14.364;2023-03-19T14:15:19;5.57;;;4.95;;
44098;SDS011;29762;50.086;14.364;2023-03-19T14:20:44;6.22;;;5.40;;
44098;SDS011;29762;50.086;14.364;2023-03-19T14:26:18;7.25;;;5.20;;
44098;SDS011;29762;50.086;14.364;2023-03-19T14:31:51;6.32;;;5.05;;
44098;SDS011;29762;50.086;14.364;2023-03-19T14:37:18;6.25;;;5.30;;
44098;SDS011;29762;50.086;14.364;2023-03-19T14:43:16;5.80;;;4.63;;
44098;SDS011;29762;50.086;14.364;2023-03-19T14:54:39;5.63;;;4.65;;
44098;SDS011;29762;50.086;14.364;2023-03-19T14:59:39;5.55;;;4.57;;
44098;SDS011;29762;50.086;14.364;2023-03-19T15:04:58;5.68;;;4.43;;
44098;SDS011;29762;50.086;14.364;2023-03-19T15:10:20;4.68;;;4.00;;
44098;SDS011;29762;50.086;14.364;2023-03-19T15:15:54;5.57;;;4.38;;
44098;SDS011;29762;50.086;14.364;2023-03-19T15:21:20;5.87;;;4.47;;
44098;SDS011;29762;50.086;14.364;2023-03-19T15:26:40;6.03;;;4.50;;
44098;SDS011;29762;50.086;14.364;2023-03-19T15:32:00;4.82;;;4.32;;
44098;SDS011;29762;50.086;14.364;2023-03-19T15:37:19;4.72;;;4.22;;
44098;SDS011;29762;50.086;14.364;2023-03-19T15:42:39;4.57;;;4.13;;
44098;SDS011;29762;50.086;14.364;2023-03-19T15:53:35;6.25;;;4.60;;
44098;SDS011;29762;50.086;14.364;2023-03-19T15:58:55;6.70;;;4.40;;
44098;SDS011;29762;50.086;14.364;2023-03-19T16:04:17;4.88;;;4.15;;
44098;SDS011;29762;50.086;14.364;2023-03-19T16:09:40;7.75;;;4.80;;
44098;SDS011;29762;50.086;14.364;2023-03-19T16:14:59;10.18;;;6.38;;
44098;SDS011;29762;50.086;14.364;2023-03-19T16:20:19;14.63;;;6.57;;
44098;SDS011;29762;50.086;14.364;2023-03-19T16:25:39;13.07;;;7.88;;
44098;SDS011;29762;50.086;14.364;2023-03-19T16:31:02;18.30;;;9.02;;
44098;SDS011;29762;50.086;14.364;2023-03-19T16:36:22;22.55;;;11.05;;
44098;SDS011;29762;50.086;14.364;2023-03-19T16:41:54;23.70;;;10.73;;
44098;SDS011;29762;50.086;14.364;2023-03-19T16:47:55;32.10;;;13.88;;
44098;SDS011;29762;50.086;14.364;2023-03-19T16:53:23;34.47;;;14.52;;
44098;SDS011;29762;50.086;14.364;2023-03-19T16:58:44;31.47;;;13.23;;
44098;SDS011;29762;50.086;14.364;2023-03-19T17:04:08;43.65;;;18.73;;
44098;SDS011;29762;50.086;14.364;2023-03-19T17:09:30;57.22;;;19.10;;
44098;SDS011;29762;50.086;14.364;2023-03-19T17:14:49;51.88;;;22.13;;
44098;SDS011;29762;50.086;14.364;2023-03-19T17:20:17;60.45;;;22.70;;
44098;SDS011;29762;50.086;14.364;2023-03-19T17:25:39;50.35;;;18.75;;
44098;SDS011;29762;50.086;14.364;2023-03-19T17:30:59;42.25;;;16.83;;
44098;SDS011;29762;50.086;14.364;2023-03-19T17:36:18;44.17;;;17.02;;
44098;SDS011;29762;50.086;14.364;2023-03-19T17:41:38;39.60;;;15.73;;
44098;SDS011;29762;50.086;14.364;2023-03-19T17:46:57;42.78;;;16.33;;
44098;SDS011;29762;50.086;14.364;2023-03-19T17:52:17;36.42;;;14.35;;
44098;SDS011;29762;50.086;14.364;2023-03-19T17:57:38;32.63;;;14.77;;
44098;SDS011;29762;50.086;14.364;2023-03-19T18:02:57;34.00;;;13.57;;
44098;SDS011;29762;50.086;14.364;2023-03-19T18:08:18;30.73;;;13.52;;
44098;SDS011;29762;50.086;14.364;2023-03-19T18:13:39;28.85;;;12.60;;
44098;SDS011;29762;50.086;14.364;2023-03-19T18:19:00;32.60;;;13.07;;
44098;SDS011;29762;50.086;14.364;2023-03-19T18:24:22;29.50;;;12.45;;
44098;SDS011;29762;50.086;14.364;2023-03-19T18:29:41;31.40;;;12.25;;
44098;SDS011;29762;50.086;14.364;2023-03-19T18:35:01;22.58;;;10.98;;
44098;SDS011;29762;50.086;14.364;2023-03-19T18:40:23;25.92;;;11.68;;
44098;SDS011;29762;50.086;14.364;2023-03-19T18:45:46;26.88;;;11.35;;
44098;SDS011;29762;50.086;14.364;2023-03-19T18:51:10;22.88;;;10.43;;
44098;SDS011;29762;50.086;14.364;2023-03-19T18:56:30;23.65;;;11.00;;
44098;SDS011;29762;50.086;14.364;2023-03-19T19:01:54;20.00;;;9.82;;
44098;SDS011;29762;50.086;14.364;2023-03-19T19:07:17;22.85;;;10.38;;
44098;SDS011;29762;50.086;14.364;2023-03-19T19:12:38;22.13;;;10.13;;
44098;SDS011;29762;50.086;14.364;2023-03-19T19:17:59;22.77;;;11.07;;
44098;SDS011;29762;50.086;14.364;2023-03-19T19:23:26;24.42;;;10.32;;
44098;SDS011;29762;50.086;14.364;2023-03-19T19:28:46;19.70;;;9.80;;
44098;SDS011;29762;50.086;14.364;2023-03-19T19:34:06;22.05;;;10.45;;
44098;SDS011;29762;50.086;14.364;2023-03-19T19:39:28;22.63;;;10.48;;
44098;SDS011;29762;50.086;14.364;2023-03-19T19:44:49;21.00;;;9.80;;
44098;SDS011;29762;50.086;14.364;2023-03-19T19:50:15;18.40;;;9.93;;
44098;SDS011;29762;50.086;14.364;2023-03-19T19:55:36;23.75;;;10.30;;
44098;SDS011;29762;50.086;14.364;2023-03-19T20:01:00;17.98;;;9.13;;
44098;SDS011;29762;50.086;14.364;2023-03-19T20:06:20;19.73;;;9.43;;
44098;SDS011;29762;50.086;14.364;2023-03-19T20:11:40;17.10;;;9.50;;
44098;SDS011;29762;50.086;14.364;2023-03-19T20:16:59;16.20;;;9.30;;
44098;SDS011;29762;50.086;14.364;2023-03-19T20:22:19;15.77;;;9.13;;
44098;SDS011;29762;50.086;14.364;2023-03-19T20:27:39;17.40;;;9.10;;
44098;SDS011;29762;50.086;14.364;2023-03-19T20:32:59;15.57;;;8.90;;
44098;SDS011;29762;50.086;14.364;2023-03-19T20:38:22;17.35;;;8.88;;
44098;SDS011;29762;50.086;14.364;2023-03-19T20:43:42;15.25;;;8.50;;
44098;SDS011;29762;50.086;14.364;2023-03-19T20:49:02;18.30;;;9.13;;
44098;SDS011;29762;50.086;14.364;2023-03-19T20:54:22;18.30;;;8.77;;
44098;SDS011;29762;50.086;14.364;2023-03-19T20:59:42;14.75;;;8.43;;
44098;SDS011;29762;50.086;14.364;2023-03-19T21:05:04;16.20;;;8.38;;
44098;SDS011;29762;50.086;14.364;2023-03-19T21:10:27;16.35;;;8.52;;
44098;SDS011;29762;50.086;14.364;2023-03-19T21:15:49;16.05;;;8.18;;
44098;SDS011;29762;50.086;14.364;2023-03-19T21:21:10;12.35;;;7.85;;
44098;SDS011;29762;50.086;14.364;2023-03-19T21:26:34;14.57;;;8.43;;
44098;SDS011;29762;50.086;14.364;2023-03-19T21:31:54;12.85;;;7.53;;
44098;SDS011;29762;50.086;14.364;2023-03-19T21:37:14;16.65;;;7.97;;
44098;SDS011;29762;50.086;14.364;2023-03-19T21:42:34;14.27;;;7.88;;
44098;SDS011;29762;50.086;14.364;2023-03-19T21:48:38;17.38;;;8.23;;
44098;SDS011;29762;50.086;14.364;2023-03-19T21:53:48;14.43;;;8.30;;
44098;SDS011;29762;50.086;14.364;2023-03-19T21:59:11;13.88;;;7.85;;
44098;SDS011;29762;50.086;14.364;2023-03-19T22:04:33;16.90;;;8.27;;
44098;SDS011;29762;50.086;14.364;2023-03-19T22:09:52;12.07;;;7.68;;
44098;SDS011;29762;50.086;14.364;2023-03-19T22:15:16;13.00;;;7.53;;
44098;SDS011;29762;50.086;14.364;2023-03-19T22:20:37;12.55;;;7.55;;
44098;SDS011;29762;50.086;14.364;2023-03-19T22:25:57;12.02;;;6.70;;
44098;SDS011;29762;50.086;14.364;2023-03-19T22:31:17;10.88;;;6.85;;
44098;SDS011;29762;50.086;14.364;2023-03-19T22:36:36;10.52;;;6.50;;
44098;SDS011;29762;50.086;14.364;2023-03-19T22:41:56;10.38;;;6.28;;
44098;SDS011;29762;50.086;14.364;2023-03-19T22:47:17;10.70;;;6.75;;
44098;SDS011;29762;50.086;14.364;2023-03-19T22:52:37;9.93;;;6.53;;
44098;SDS011;29762;50.086;14.364;2023-03-19T22:57:57;10.68;;;6.43;;
44098;SDS011;29762;50.086;14.364;2023-03-19T23:03:20;11.23;;;6.32;;
44098;SDS011;29762;50.086;14.364;2023-03-19T23:08:43;10.63;;;6.47;;
44098;SDS011;29762;50.086;14.364;2023-03-19T23:14:02;9.15;;;6.07;;
44098;SDS011;29762;50.086;14.364;2023-03-19T23:19:23;10.77;;;6.32;;
44098;SDS011;29762;50.086;14.364;2023-03-19T23:24:49;10.75;;;6.40;;
44098;SDS011;29762;50.086;14.364;2023-03-19T23:30:31;9.05;;;5.45;;
44098;SDS011;29762;50.086;14.364;2023-03-19T23:35:50;8.80;;;5.43;;
44098;SDS011;29762;50.086;14.364;2023-03-19T23:41:19;9.20;;;5.95;;
44098;SDS011;29762;50.086;14.364;2023-03-19T23:46:41;8.70;;;5.82;;
44098;SDS011;29762;50.086;14.364;2023-03-19T23:52:01;8.70;;;5.68;;
44098;SDS011;29762;50.086;14.364;2023-03-19T23:57:22;8.68;;;5.57;;
